Time;durP1;ratioP1;P1;durP2;ratioP2;P2;SDS_P1;SDS_P2;PMS_P1;PMS_P2;Temp;Humidity;BMP_temperature;BMP_pressure;BME280_temperature;BME280_humidity;BME280_pressure;Samples;Min_cycle;Max_cycle;Signal;HPM_P1;HPM_P2
2022/10/21 00:01:17;;;;;;;7.43;6.72;;;;;;;;;;5074889;28;20211;-85
2022/10/21 00:03:47;;;;;;;7.40;6.70;;;;;;;;;;5074631;28;20201;-85
2022/10/21 00:06:17;;;;;;;7.60;6.90;;;;;;;;;;5075125;28;20329;-85
2022/10/21 00:08:44;;;;;;;15.60;7.63;;;;;;;;;;5074931;28;20231;-84
2022/10/21 00:11:12;;;;;;;5.97;5.47;;;;;;;;;;5074678;28;20285;-84
2022/10/21 00:13:45;;;;;;;6.97;6.28;;;;;;;;;;5074470;28;20660;-85
2022/10/21 00:16:21;;;;;;;8.07;7.30;;;;;;;;;;5074506;28;20312;-85
2022/10/21 00:18:49;;;;;;;7.00;6.38;;;;;;;;;;5073757;28;20622;-85
2022/10/21 00:21:19;;;;;;;12.63;7.72;;;;;;;;;;5074382;28;20207;-85
2022/10/21 00:23:48;;;;;;;8.18;7.10;;;;;;;;;;5075281;28;20274;-84
2022/10/21 00:26:30;;;;;;;7.60;6.90;;;;;;;;;;5073996;28;20212;-84
2022/10/21 00:28:58;;;;;;;7.30;6.65;;;;;;;;;;5074282;28;20262;-85
2022/10/21 00:31:27;;;;;;;7.85;7.05;;;;;;;;;;5074420;28;20682;-85
2022/10/21 00:33:57;;;;;;;9.40;7.88;;;;;;;;;;5074176;28;20228;-85
2022/10/21 00:36:25;;;;;;;7.20;6.47;;;;;;;;;;5073668;28;20233;-85
2022/10/21 00:38:52;;;;;;;7.25;6.55;;;;;;;;;;5074182;28;20309;-85
2022/10/21 00:41:20;;;;;;;6.40;5.80;;;;;;;;;;5073793;28;20201;-85
2022/10/21 00:44:01;;;;;;;6.40;5.80;;;;;;;;;;5073832;28;20617;-85
2022/10/21 00:46:43;;;;;;;6.60;5.90;;;;;;;;;;5073697;28;20650;-85
2022/10/21 00:49:23;;;;;;;6.15;5.60;;;;;;;;;;5073458;28;20239;-84
2022/10/21 00:52:17;;;;;;;7.78;6.97;;;;;;;;;;5074041;28;20185;-85
2022/10/21 00:54:51;;;;;;;7.53;6.80;;;;;;;;;;5062976;28;20231;-85
2022/10/21 00:57:25;;;;;;;6.00;5.50;;;;;;;;;;5073483;28;20205;-85
2022/10/21 01:00:00;;;;;;;6.18;5.15;;;;;;;;;;5073483;28;20190;-84
2022/10/21 01:02:29;;;;;;;5.90;5.20;;;;;;;;;;5074392;28;20189;-85
2022/10/21 01:05:02;;;;;;;6.20;5.60;;;;;;;;;;5073348;28;20315;-85
2022/10/21 01:07:30;;;;;;;5.88;5.35;;;;;;;;;;5053684;28;20284;-85
2022/10/21 01:09:57;;;;;;;6.05;5.45;;;;;;;;;;5053043;28;20230;-85
2022/10/21 01:12:33;;;;;;;7.57;6.40;;;;;;;;;;5053452;28;20208;-85
2022/10/21 01:15:05;;;;;;;7.05;6.35;;;;;;;;;;5052846;28;20241;-85
2022/10/21 01:20:40;;;;;;;6.38;5.75;;;;;;;;;;5071207;28;20677;-86
2022/10/21 01:23:41;;;;;;;7.95;5.22;;;;;;;;;;5073456;28;20205;-86
2022/10/21 01:26:51;;;;;;;6.15;5.65;;;;;;;;;;5073003;28;20223;-87
2022/10/21 01:29:52;;;;;;;7.90;6.38;;;;;;;;;;5052203;28;20230;-86
2022/10/21 01:32:28;;;;;;;5.55;5.05;;;;;;;;;;5068869;28;20201;-85
2022/10/21 01:35:01;;;;;;;5.28;4.78;;;;;;;;;;5073307;28;20203;-85
2022/10/21 01:37:34;;;;;;;6.07;5.53;;;;;;;;;;5054217;28;20225;-85
2022/10/21 01:40:08;;;;;;;6.85;6.22;;;;;;;;;;5055515;28;20573;-86
2022/10/21 01:42:41;;;;;;;13.00;5.53;;;;;;;;;;5056443;28;20224;-86
2022/10/21 01:45:14;;;;;;;9.32;6.55;;;;;;;;;;5057181;28;20186;-85
2022/10/21 01:47:47;;;;;;;7.90;5.15;;;;;;;;;;5056835;28;20300;-85
2022/10/21 01:50:18;;;;;;;5.97;5.35;;;;;;;;;;5056959;28;20248;-85
2022/10/21 01:52:49;;;;;;;7.20;6.45;;;;;;;;;;5057117;28;20767;-84
2022/10/21 01:55:20;;;;;;;5.57;5.07;;;;;;;;;;5057031;28;20288;-86
2022/10/21 01:57:52;;;;;;;6.22;5.68;;;;;;;;;;5056284;28;20232;-85
2022/10/21 02:00:20;;;;;;;6.47;5.97;;;;;;;;;;5057243;28;20225;-85
2022/10/21 02:02:50;;;;;;;7.63;6.93;;;;;;;;;;5056798;28;20292;-86
2022/10/21 02:05:21;;;;;;;6.75;6.13;;;;;;;;;;5067785;28;20224;-86
2022/10/21 02:07:49;;;;;;;8.25;7.47;;;;;;;;;;5065529;28;20208;-85
2022/10/21 02:10:19;;;;;;;6.72;5.38;;;;;;;;;;5055420;28;20252;-85
2022/10/21 02:12:49;;;;;;;5.65;5.05;;;;;;;;;;5055804;28;20284;-86
2022/10/21 02:15:17;;;;;;;8.23;6.22;;;;;;;;;;5055486;28;20201;-85
2022/10/21 02:17:52;;;;;;;6.10;4.97;;;;;;;;;;5057622;28;20224;-84
2022/10/21 02:20:20;;;;;;;5.57;5.13;;;;;;;;;;5095515;28;20271;-84
2022/10/21 02:22:48;;;;;;;5.93;5.30;;;;;;;;;;5095326;28;20287;-84
2022/10/21 02:25:20;;;;;;;5.45;4.93;;;;;;;;;;5095581;28;20980;-84
2022/10/21 02:27:48;;;;;;;4.85;3.90;;;;;;;;;;5095471;28;20224;-84
2022/10/21 02:30:15;;;;;;;5.38;4.93;;;;;;;;;;5094761;28;20224;-84
2022/10/21 02:32:50;;;;;;;6.22;5.63;;;;;;;;;;5094917;28;20199;-84
2022/10/21 02:35:27;;;;;;;7.68;5.18;;;;;;;;;;5094941;28;20245;-84
2022/10/21 02:38:01;;;;;;;6.78;6.07;;;;;;;;;;5095038;28;20200;-85
2022/10/21 02:40:34;;;;;;;5.97;5.38;;;;;;;;;;5094877;28;20192;-85
2022/10/21 02:43:06;;;;;;;6.53;5.93;;;;;;;;;;5095252;28;20188;-84
2022/10/21 02:45:34;;;;;;;4.90;4.25;;;;;;;;;;5094635;28;20721;-84
2022/10/21 02:48:03;;;;;;;4.82;4.43;;;;;;;;;;5094534;28;20192;-84
2022/10/21 02:50:31;;;;;;;5.68;5.13;;;;;;;;;;5094591;28;20216;-84
2022/10/21 02:52:59;;;;;;;6.90;6.30;;;;;;;;;;5094809;28;20279;-83
2022/10/21 02:55:26;;;;;;;5.03;4.53;;;;;;;;;;5094880;28;20287;-84
2022/10/21 02:57:54;;;;;;;7.60;6.93;;;;;;;;;;5094650;28;20560;-85
2022/10/21 03:00:21;;;;;;;5.50;5.00;;;;;;;;;;5094411;28;20283;-86
2022/10/21 03:02:49;;;;;;;5.20;4.63;;;;;;;;;;5094732;28;20193;-84
2022/10/21 03:05:18;;;;;;;5.60;5.00;;;;;;;;;;5094261;28;20192;-85
2022/10/21 03:07:45;;;;;;;6.80;6.18;;;;;;;;;;5093397;28;20684;-84
2022/10/21 03:10:13;;;;;;;6.40;5.80;;;;;;;;;;5094240;28;20774;-84
2022/10/21 03:12:40;;;;;;;6.13;5.63;;;;;;;;;;5094623;28;20200;-85
2022/10/21 03:15:11;;;;;;;6.63;6.00;;;;;;;;;;5094594;28;20284;-85
2022/10/21 03:17:38;;;;;;;4.82;4.43;;;;;;;;;;5094425;28;20308;-84
2022/10/21 03:20:08;;;;;;;4.82;4.43;;;;;;;;;;5093883;28;20307;-84
2022/10/21 03:22:37;;;;;;;7.10;5.90;;;;;;;;;;5094174;28;20212;-85
2022/10/21 03:25:06;;;;;;;6.70;5.60;;;;;;;;;;5094328;28;20690;-84
2022/10/21 03:27:34;;;;;;;5.57;5.07;;;;;;;;;;5094265;28;20288;-84
2022/10/21 03:30:03;;;;;;;4.93;4.53;;;;;;;;;;5093664;28;20226;-84
2022/10/21 03:32:34;;;;;;;6.32;5.75;;;;;;;;;;5093900;28;20196;-84
2022/10/21 03:35:04;;;;;;;5.90;5.40;;;;;;;;;;5093755;28;20242;-85
2022/10/21 03:37:32;;;;;;;5.10;4.43;;;;;;;;;;5093483;28;20216;-84
2022/10/21 03:40:01;;;;;;;5.15;4.55;;;;;;;;;;5093469;28;20231;-85
2022/10/21 03:42:28;;;;;;;6.53;4.45;;;;;;;;;;5093357;28;20303;-84
2022/10/21 03:44:56;;;;;;;6.00;5.50;;;;;;;;;;5093249;28;20291;-84
2022/10/21 03:47:23;;;;;;;4.72;4.38;;;;;;;;;;5093146;28;20235;-85
2022/10/21 03:49:51;;;;;;;6.53;5.53;;;;;;;;;;5092994;28;20579;-84
2022/10/21 03:52:18;;;;;;;4.95;4.55;;;;;;;;;;5092869;28;20246;-85
2022/10/21 03:54:46;;;;;;;5.82;5.30;;;;;;;;;;5092814;28;20200;-85
2022/10/21 03:57:15;;;;;;;6.65;5.10;;;;;;;;;;5093231;28;20641;-84
2022/10/21 03:59:43;;;;;;;11.73;5.93;;;;;;;;;;5092961;28;20206;-85
2022/10/21 04:02:10;;;;;;;5.35;4.78;;;;;;;;;;5092643;28;20594;-84
2022/10/21 04:04:38;;;;;;;5.97;5.43;;;;;;;;;;5092842;28;20196;-84
2022/10/21 04:07:05;;;;;;;5.60;5.00;;;;;;;;;;5109950;28;20713;-84
2022/10/21 04:09:33;;;;;;;5.65;5.15;;;;;;;;;;5113273;28;20198;-84
2022/10/21 04:12:00;;;;;;;10.43;6.05;;;;;;;;;;5112801;28;20773;-85
2022/10/21 04:14:31;;;;;;;6.50;5.90;;;;;;;;;;5113322;28;20575;-85
2022/10/21 04:16:59;;;;;;;7.20;5.35;;;;;;;;;;5113058;28;20768;-85
2022/10/21 04:19:27;;;;;;;6.20;5.63;;;;;;;;;;5112755;28;20203;-85
2022/10/21 04:21:54;;;;;;;5.35;4.85;;;;;;;;;;5113270;28;20317;-84
2022/10/21 04:24:22;;;;;;;5.45;4.95;;;;;;;;;;5112778;28;20670;-84
2022/10/21 04:26:51;;;;;;;6.05;4.90;;;;;;;;;;5112741;28;20240;-84
2022/10/21 04:29:18;;;;;;;4.90;4.05;;;;;;;;;;5112769;28;20239;-82
2022/10/21 04:31:47;;;;;;;7.88;6.10;;;;;;;;;;5112564;28;20223;-84
2022/10/21 04:34:15;;;;;;;6.55;6.05;;;;;;;;;;5112715;28;20310;-83
2022/10/21 04:36:43;;;;;;;6.57;5.15;;;;;;;;;;5098955;28;20310;-84
2022/10/21 04:39:10;;;;;;;5.28;4.88;;;;;;;;;;5092558;28;20295;-84
2022/10/21 04:41:38;;;;;;;5.03;4.57;;;;;;;;;;5092586;28;20655;-84
2022/10/21 04:44:06;;;;;;;7.28;4.68;;;;;;;;;;5092278;28;20201;-84
2022/10/21 04:46:33;;;;;;;6.30;5.70;;;;;;;;;;5092484;28;20250;-83
2022/10/21 04:49:02;;;;;;;5.25;4.75;;;;;;;;;;5092163;28;20287;-84
2022/10/21 04:51:30;;;;;;;4.38;4.07;;;;;;;;;;5092365;28;20224;-83
2022/10/21 04:53:57;;;;;;;5.18;4.78;;;;;;;;;;5092401;28;20286;-85
2022/10/21 04:56:25;;;;;;;8.00;5.03;;;;;;;;;;5092002;28;20251;-85
2022/10/21 04:58:52;;;;;;;5.40;4.85;;;;;;;;;;5091882;28;20206;-84
2022/10/21 05:01:20;;;;;;;5.30;3.85;;;;;;;;;;5092202;28;20260;-84
2022/10/21 05:03:47;;;;;;;6.93;5.78;;;;;;;;;;5092525;28;20204;-82
2022/10/21 05:06:16;;;;;;;5.22;4.70;;;;;;;;;;5091762;28;20307;-82
2022/10/21 05:08:43;;;;;;;6.43;5.80;;;;;;;;;;5091748;28;20656;-82
2022/10/21 05:11:11;;;;;;;5.80;5.18;;;;;;;;;;5094069;28;20307;-83
2022/10/21 05:13:38;;;;;;;5.88;5.32;;;;;;;;;;5093819;28;20287;-84
2022/10/21 05:16:07;;;;;;;5.70;5.20;;;;;;;;;;5108336;28;20238;-84
2022/10/21 05:18:34;;;;;;;6.45;5.85;;;;;;;;;;5114302;28;20682;-85
2022/10/21 05:21:02;;;;;;;5.53;5.03;;;;;;;;;;5102293;28;20277;-84
2022/10/21 05:23:31;;;;;;;5.88;5.22;;;;;;;;;;5097501;28;20661;-83
2022/10/21 05:25:58;;;;;;;6.28;5.70;;;;;;;;;;5095948;28;20688;-86
2022/10/21 05:28:26;;;;;;;5.80;4.85;;;;;;;;;;5096341;28;20283;-84
2022/10/21 05:30:54;;;;;;;5.00;4.60;;;;;;;;;;5095680;28;20244;-84
2022/10/21 05:33:21;;;;;;;5.00;4.50;;;;;;;;;;5095915;28;20181;-84
2022/10/21 05:35:57;;;;;;;5.78;5.28;;;;;;;;;;5095202;28;20253;-84
2022/10/21 05:38:24;;;;;;;5.75;5.20;;;;;;;;;;5095356;28;20239;-84
2022/10/21 05:40:53;;;;;;;5.32;4.82;;;;;;;;;;5097631;28;20291;-83
2022/10/21 05:43:20;;;;;;;6.30;5.70;;;;;;;;;;5108756;28;20220;-83
2022/10/21 05:45:48;;;;;;;6.03;4.32;;;;;;;;;;5119238;28;20211;-83
2022/10/21 05:48:17;;;;;;;6.13;4.78;;;;;;;;;;5119524;28;20192;-83
2022/10/21 05:50:45;;;;;;;6.95;6.25;;;;;;;;;;5133248;28;20234;-83
2022/10/21 05:53:12;;;;;;;5.07;4.53;;;;;;;;;;5140427;28;20184;-83
2022/10/21 05:55:40;;;;;;;6.30;5.70;;;;;;;;;;5137034;28;20242;-83
2022/10/21 05:58:09;;;;;;;6.32;5.72;;;;;;;;;;5140195;28;20206;-83
2022/10/21 06:00:36;;;;;;;5.72;4.63;;;;;;;;;;5140074;28;20203;-83
2022/10/21 06:03:04;;;;;;;4.97;4.57;;;;;;;;;;5140133;28;20188;-83
2022/10/21 06:05:31;;;;;;;4.43;4.00;;;;;;;;;;5135766;28;20209;-83
2022/10/21 06:07:59;;;;;;;5.47;4.93;;;;;;;;;;5118554;28;20176;-83
2022/10/21 06:10:26;;;;;;;6.07;5.47;;;;;;;;;;5118406;28;20200;-83
2022/10/21 06:12:54;;;;;;;7.88;5.75;;;;;;;;;;5116100;28;20224;-83
2022/10/21 06:15:26;;;;;;;5.93;4.90;;;;;;;;;;5117736;28;20180;-82
2022/10/21 06:17:53;;;;;;;3.72;3.42;;;;;;;;;;5119957;28;20207;-83
2022/10/21 06:20:20;;;;;;;5.18;4.68;;;;;;;;;;5128530;28;20192;-84
2022/10/21 06:22:48;;;;;;;6.15;5.55;;;;;;;;;;5137682;28;20259;-84
2022/10/21 06:25:16;;;;;;;5.80;5.30;;;;;;;;;;5138910;28;20206;-82
2022/10/21 06:27:43;;;;;;;4.82;4.40;;;;;;;;;;5139424;28;20231;-83
2022/10/21 06:30:11;;;;;;;4.93;4.53;;;;;;;;;;5139244;28;20223;-83
2022/10/21 06:32:40;;;;;;;5.82;4.38;;;;;;;;;;5138056;28;20215;-82
2022/10/21 06:35:08;;;;;;;6.35;4.90;;;;;;;;;;5134677;28;20196;-83
2022/10/21 06:37:36;;;;;;;9.88;5.93;;;;;;;;;;5117393;28;20219;-83
2022/10/21 06:40:04;;;;;;;7.53;5.07;;;;;;;;;;5115889;28;20211;-83
2022/10/21 06:42:32;;;;;;;4.80;4.40;;;;;;;;;;5116012;28;20241;-83
2022/10/21 06:44:59;;;;;;;7.75;5.32;;;;;;;;;;5116058;28;20212;-84
2022/10/21 06:47:27;;;;;;;6.78;4.70;;;;;;;;;;5113021;28;20224;-84
2022/10/21 06:49:55;;;;;;;6.43;5.82;;;;;;;;;;5117850;28;20223;-83
2022/10/21 06:52:23;;;;;;;6.47;4.80;;;;;;;;;;5137199;28;20246;-83
2022/10/21 06:54:50;;;;;;;6.30;4.60;;;;;;;;;;5132484;28;20198;-84
2022/10/21 06:57:18;;;;;;;5.45;5.00;;;;;;;;;;5134830;28;20224;-82
2022/10/21 06:59:47;;;;;;;7.00;5.40;;;;;;;;;;5133091;28;20195;-83
2022/10/21 07:02:15;;;;;;;6.68;5.35;;;;;;;;;;5135923;28;20192;-83
2022/10/21 07:04:44;;;;;;;10.40;6.38;;;;;;;;;;5131276;28;20184;-83
2022/10/21 07:07:13;;;;;;;5.25;4.85;;;;;;;;;;5111061;28;20278;-83
2022/10/21 07:09:40;;;;;;;4.78;4.28;;;;;;;;;;5113850;28;20206;-83
2022/10/21 07:12:08;;;;;;;6.75;5.30;;;;;;;;;;5110963;28;20244;-83
2022/10/21 07:14:35;;;;;;;7.00;5.70;;;;;;;;;;5109353;28;20192;-83
2022/10/21 07:17:03;;;;;;;6.32;5.13;;;;;;;;;;5106104;28;20284;-83
2022/10/21 07:19:30;;;;;;;7.30;5.50;;;;;;;;;;5080648;22;20313;-83
2022/10/21 07:21:57;;;;;;;9.00;6.20;;;;;;;;;;5034407;28;20723;-82
2022/10/21 07:24:26;;;;;;;6.68;5.45;;;;;;;;;;5033719;28;20570;-83
2022/10/21 07:26:54;;;;;;;7.78;5.78;;;;;;;;;;5033831;28;20289;-83
2022/10/21 07:29:21;;;;;;;8.00;6.07;;;;;;;;;;5033855;28;20321;-84
2022/10/21 07:31:49;;;;;;;7.85;6.00;;;;;;;;;;5016622;28;20230;-83
2022/10/21 07:34:16;;;;;;;6.50;5.18;;;;;;;;;;5034166;28;20261;-84
2022/10/21 07:36:47;;;;;;;5.57;5.05;;;;;;;;;;5032982;28;20297;-83
2022/10/21 07:39:19;;;;;;;5.40;4.65;;;;;;;;;;5034124;28;20687;-84
2022/10/21 07:41:50;;;;;;;5.43;4.78;;;;;;;;;;5034059;28;20186;-83
2022/10/21 07:44:19;;;;;;;6.97;6.07;;;;;;;;;;5034013;28;20219;-84
2022/10/21 07:46:48;;;;;;;9.10;5.32;;;;;;;;;;5034183;28;20293;-83
2022/10/21 07:49:16;;;;;;;5.72;5.05;;;;;;;;;;5034080;28;20289;-84
2022/10/21 07:51:45;;;;;;;5.55;4.97;;;;;;;;;;5033679;28;20203;-84
2022/10/21 07:54:14;;;;;;;6.63;5.03;;;;;;;;;;5033422;28;20218;-83
2022/10/21 07:56:44;;;;;;;4.72;4.32;;;;;;;;;;5034375;28;20202;-82
2022/10/21 07:59:14;;;;;;;7.40;4.13;;;;;;;;;;5033917;28;20197;-83
2022/10/21 08:01:44;;;;;;;5.20;4.15;;;;;;;;;;5033562;28;20220;-84
2022/10/21 08:06:41;;;;;;;6.82;5.05;;;;;;;;;;5091223;28;20204;-83
2022/10/21 08:09:09;;;;;;;6.45;5.85;;;;;;;;;;5096482;28;20202;-84
2022/10/21 08:11:37;;;;;;;5.72;5.22;;;;;;;;;;5095381;28;20294;-84
2022/10/21 08:14:06;;;;;;;7.20;4.63;;;;;;;;;;5095346;28;20629;-85
2022/10/21 08:16:36;;;;;;;11.60;6.65;;;;;;;;;;5096292;28;20229;-84
2022/10/21 08:19:05;;;;;;;19.13;8.20;;;;;;;;;;5096052;28;20656;-85
2022/10/21 08:21:32;;;;;;;6.57;4.88;;;;;;;;;;5096212;28;20196;-82
2022/10/21 08:24:05;;;;;;;5.80;5.18;;;;;;;;;;5097605;28;20224;-84
2022/10/21 08:26:33;;;;;;;5.70;5.13;;;;;;;;;;5097532;28;20574;-82
2022/10/21 08:29:01;;;;;;;6.43;4.93;;;;;;;;;;5096646;28;20200;-82
2022/10/21 08:31:29;;;;;;;5.50;5.00;;;;;;;;;;5096768;28;20633;-82
2022/10/21 08:33:58;;;;;;;9.27;4.50;;;;;;;;;;5096034;28;20266;-83
2022/10/21 08:36:26;;;;;;;5.22;4.72;;;;;;;;;;5097658;28;20220;-83
2022/10/21 08:38:54;;;;;;;5.95;5.00;;;;;;;;;;5097786;28;20224;-83
2022/10/21 08:41:43;;;;;;;6.72;5.60;;;;;;;;;;5096937;28;20226;-83
2022/10/21 08:44:23;;;;;;;6.00;5.40;;;;;;;;;;5097525;28;20680;-85
2022/10/21 08:46:54;;;;;;;5.65;5.15;;;;;;;;;;5098906;28;20194;-84
2022/10/21 08:49:27;;;;;;;5.65;4.82;;;;;;;;;;5101485;28;20275;-84
2022/10/21 08:51:58;;;;;;;7.45;5.55;;;;;;;;;;5103054;28;20200;-82
2022/10/21 08:54:31;;;;;;;7.35;5.22;;;;;;;;;;5102115;28;20714;-82
2022/10/21 08:56:59;;;;;;;6.43;4.78;;;;;;;;;;5103298;28;20558;-82
2022/10/21 08:59:27;;;;;;;5.10;4.13;;;;;;;;;;5102386;28;20200;-81
2022/10/21 09:02:01;;;;;;;4.25;3.20;;;;;;;;;;5101302;28;20204;-82
2022/10/21 09:04:37;;;;;;;4.63;4.22;;;;;;;;;;5100280;28;20211;-82
2022/10/21 09:07:12;;;;;;;5.97;5.38;;;;;;;;;;5098331;28;20275;-83
2022/10/21 09:09:44;;;;;;;8.27;5.53;;;;;;;;;;5098784;28;20685;-83
2022/10/21 09:12:19;;;;;;;6.22;5.20;;;;;;;;;;5098350;28;20184;-81
2022/10/21 09:15:14;;;;;;;6.80;4.53;;;;;;;;;;5097458;28;20310;-82
2022/10/21 09:17:54;;;;;;;5.53;4.55;;;;;;;;;;5098016;28;20192;-85
2022/10/21 09:20:37;;;;;;;5.22;4.72;;;;;;;;;;5098987;28;20231;-83
2022/10/21 09:23:28;;;;;;;8.77;5.72;;;;;;;;;;5099416;28;20200;-82
2022/10/21 09:26:01;;;;;;;4.63;3.97;;;;;;;;;;5097918;28;20311;-83
2022/10/21 09:28:30;;;;;;;5.65;5.05;;;;;;;;;;5098457;28;20186;-81
2022/10/21 09:30:59;;;;;;;6.95;4.70;;;;;;;;;;5098264;28;20548;-82
2022/10/21 09:33:30;;;;;;;4.35;3.95;;;;;;;;;;5097760;28;20227;-83
2022/10/21 09:36:05;;;;;;;3.45;3.15;;;;;;;;;;5097840;28;20274;-81
2022/10/21 09:38:41;;;;;;;5.65;4.70;;;;;;;;;;5097146;28;20184;-81
2022/10/21 09:41:13;;;;;;;4.10;3.70;;;;;;;;;;5097790;28;20275;-82
2022/10/21 09:43:41;;;;;;;4.00;3.67;;;;;;;;;;5098070;28;20181;-81
2022/10/21 09:46:12;;;;;;;6.32;4.68;;;;;;;;;;5098569;28;20274;-84
2022/10/21 09:48:44;;;;;;;4.60;4.20;;;;;;;;;;5098847;28;20629;-81
2022/10/21 09:51:16;;;;;;;5.97;4.57;;;;;;;;;;5098588;28;20294;-81
2022/10/21 09:53:47;;;;;;;6.07;4.22;;;;;;;;;;5098023;28;20295;-81
2022/10/21 09:56:19;;;;;;;6.60;4.85;;;;;;;;;;5098230;28;20221;-83
2022/10/21 09:58:51;;;;;;;6.32;4.55;;;;;;;;;;5098502;28;20262;-83
2022/10/21 10:01:23;;;;;;;5.35;4.53;;;;;;;;;;5097816;28;20184;-84
2022/10/21 10:03:52;;;;;;;10.10;6.30;;;;;;;;;;5097901;28;20287;-82
2022/10/21 10:06:36;;;;;;;5.32;4.65;;;;;;;;;;5098332;28;20231;-83
2022/10/21 10:09:14;;;;;;;5.95;4.70;;;;;;;;;;5098423;28;20200;-85
2022/10/21 10:11:52;;;;;;;5.38;4.90;;;;;;;;;;5099166;28;20558;-83
2022/10/21 10:14:31;;;;;;;5.15;4.65;;;;;;;;;;5098929;28;20228;-83
2022/10/21 10:17:15;;;;;;;8.38;6.85;;;;;;;;;;5099023;28;20219;-84
2022/10/21 10:19:42;;;;;;;8.10;6.13;;;;;;;;;;5097622;28;20294;-82
2022/10/21 10:22:16;;;;;;;5.07;4.68;;;;;;;;;;5097890;28;20508;-84
2022/10/21 10:24:45;;;;;;;5.75;4.60;;;;;;;;;;5097944;28;20227;-84
2022/10/21 10:27:15;;;;;;;7.78;5.43;;;;;;;;;;5099307;28;20222;-82
2022/10/21 10:29:50;;;;;;;6.88;5.15;;;;;;;;;;5100444;28;20172;-83
2022/10/21 10:32:18;;;;;;;5.15;4.65;;;;;;;;;;5098772;28;20187;-84
2022/10/21 10:34:53;;;;;;;5.28;4.72;;;;;;;;;;5097262;28;20311;-83
2022/10/21 10:37:24;;;;;;;5.47;4.50;;;;;;;;;;5097503;28;20188;-83
2022/10/21 10:39:55;;;;;;;4.85;4.35;;;;;;;;;;5098536;28;20191;-84
2022/10/21 10:42:25;;;;;;;4.88;4.47;;;;;;;;;;5098638;28;20184;-82
2022/10/21 10:44:54;;;;;;;4.05;3.65;;;;;;;;;;5098005;28;20307;-84
2022/10/21 10:47:26;;;;;;;3.92;3.33;;;;;;;;;;5099111;28;20200;-84
2022/10/21 10:49:53;;;;;;;5.80;4.32;;;;;;;;;;5098275;28;20219;-84
2022/10/21 10:52:24;;;;;;;6.00;5.40;;;;;;;;;;5097411;28;20263;-84
2022/10/21 10:55:17;;;;;;;5.40;4.25;;;;;;;;;;5097461;28;20221;-83
2022/10/21 10:57:50;;;;;;;4.93;4.43;;;;;;;;;;5097788;28;20267;-83
2022/10/21 11:00:20;;;;;;;4.68;4.25;;;;;;;;;;5097395;28;20254;-83
2022/10/21 11:02:55;;;;;;;7.40;5.75;;;;;;;;;;5097984;28;20265;-83
2022/10/21 11:05:28;;;;;;;5.80;4.50;;;;;;;;;;5097685;28;20304;-83
2022/10/21 11:07:59;;;;;;;5.15;4.50;;;;;;;;;;5097469;28;20200;-83
2022/10/21 11:10:36;;;;;;;4.63;4.05;;;;;;;;;;5099397;28;20221;-85
2022/10/21 11:13:09;;;;;;;9.77;5.78;;;;;;;;;;5098486;28;20194;-84
2022/10/21 11:15:53;;;;;;;5.97;5.38;;;;;;;;;;5097073;28;20316;-83
2022/10/21 11:18:29;;;;;;;6.47;5.10;;;;;;;;;;5098375;28;20184;-83
2022/10/21 11:21:07;;;;;;;7.13;5.57;;;;;;;;;;5097292;28;20813;-83
2022/10/21 11:23:58;;;;;;;5.20;4.70;;;;;;;;;;5098311;28;20180;-82
2022/10/21 11:26:33;;;;;;;6.43;5.85;;;;;;;;;;5097541;28;20220;-84
2022/10/21 11:29:19;;;;;;;8.23;5.65;;;;;;;;;;5097335;28;20263;-82
2022/10/21 11:31:58;;;;;;;4.35;3.95;;;;;;;;;;5098625;28;20195;-83
2022/10/21 11:34:31;;;;;;;6.10;4.82;;;;;;;;;;5097815;28;20214;-86
2022/10/21 11:37:07;;;;;;;7.32;5.82;;;;;;;;;;5097795;28;20243;-84
2022/10/21 11:39:44;;;;;;;4.72;4.32;;;;;;;;;;5096447;28;20188;-84
2022/10/21 11:42:20;;;;;;;4.65;4.25;;;;;;;;;;5094622;28;20207;-84
2022/10/21 11:45:15;;;;;;;7.10;6.40;;;;;;;;;;5095338;28;20696;-84
2022/10/21 11:47:49;;;;;;;5.80;5.30;;;;;;;;;;5094575;28;20555;-85
2022/10/21 11:50:20;;;;;;;6.32;5.63;;;;;;;;;;5096040;28;20272;-84
2022/10/21 11:53:13;;;;;;;5.30;4.72;;;;;;;;;;5094391;28;20191;-85
2022/10/21 11:55:46;;;;;;;5.95;5.32;;;;;;;;;;5094709;28;20235;-85
2022/10/21 11:58:25;;;;;;;6.05;5.55;;;;;;;;;;5094644;28;20211;-84
2022/10/21 12:01:14;;;;;;;5.13;4.68;;;;;;;;;;5093362;28;20275;-85
2022/10/21 12:04:05;;;;;;;5.10;4.70;;;;;;;;;;5093925;28;20191;-86
2022/10/21 12:06:37;;;;;;;3.58;3.28;;;;;;;;;;5093948;28;20315;-84
2022/10/21 12:09:10;;;;;;;3.33;3.03;;;;;;;;;;5093519;28;20640;-84
2022/10/21 12:11:46;;;;;;;3.72;3.42;;;;;;;;;;5093546;28;20279;-84
2022/10/21 12:14:25;;;;;;;4.70;4.30;;;;;;;;;;5093475;28;20188;-84
2022/10/21 12:16:54;;;;;;;4.18;3.50;;;;;;;;;;5093172;28;20191;-84
2022/10/21 12:19:21;;;;;;;5.20;3.42;;;;;;;;;;5093776;28;20668;-86
2022/10/21 12:21:49;;;;;;;3.25;3.05;;;;;;;;;;5093684;28;20214;-85
2022/10/21 12:24:28;;;;;;;4.38;3.22;;;;;;;;;;5093368;28;20708;-85
2022/10/21 12:27:02;;;;;;;3.35;3.05;;;;;;;;;;5094121;28;20617;-86
2022/10/21 12:29:43;;;;;;;2.83;2.63;;;;;;;;;;5094010;28;20279;-84
2022/10/21 12:32:22;;;;;;;3.50;3.20;;;;;;;;;;5094034;28;20208;-85
2022/10/21 12:34:50;;;;;;;4.13;2.97;;;;;;;;;;5093124;28;20224;-85
2022/10/21 12:38:01;;;;;;;3.63;3.33;;;;;;;;;;5086129;28;20618;-85
2022/10/21 12:40:38;;;;;;;4.13;3.72;;;;;;;;;;5073271;28;20705;-85
2022/10/21 12:43:21;;;;;;;4.28;3.65;;;;;;;;;;5074055;28;20191;-86
2022/10/21 12:46:03;;;;;;;4.20;3.80;;;;;;;;;;5073373;28;20216;-83
2022/10/21 12:48:38;;;;;;;3.05;2.83;;;;;;;;;;5073492;28;20548;-84
2022/10/21 12:51:16;;;;;;;3.58;3.38;;;;;;;;;;5073136;28;20185;-83
2022/10/21 12:53:49;;;;;;;5.35;4.85;;;;;;;;;;5074475;28;20184;-85
2022/10/21 12:56:28;;;;;;;4.03;3.63;;;;;;;;;;5075992;28;20225;-83
2022/10/21 12:59:02;;;;;;;3.35;3.05;;;;;;;;;;5076733;28;20204;-85
2022/10/21 13:01:41;;;;;;;3.30;3.03;;;;;;;;;;5074773;28;20356;-85
2022/10/21 13:04:51;;;;;;;5.70;3.83;;;;;;;;;;5074003;28;20208;-83
2022/10/21 13:07:38;;;;;;;4.38;4.00;;;;;;;;;;5026404;28;20211;-84
2022/10/21 13:10:36;;;;;;;5.63;4.55;;;;;;;;;;5075512;28;20291;-85
2022/10/21 13:13:32;;;;;;;5.53;4.70;;;;;;;;;;5077000;28;20288;-84
2022/10/21 13:16:25;;;;;;;6.82;4.82;;;;;;;;;;5062503;28;20741;-85
2022/10/21 13:18:58;;;;;;;4.70;4.03;;;;;;;;;;5074288;28;20197;-83
2022/10/21 13:21:37;;;;;;;5.03;4.63;;;;;;;;;;5075404;28;20268;-83
2022/10/21 13:24:18;;;;;;;4.75;4.22;;;;;;;;;;5074447;28;20185;-85
2022/10/21 13:26:50;;;;;;;4.50;4.10;;;;;;;;;;5075333;28;20177;-84
2022/10/21 13:29:41;;;;;;;6.25;3.60;;;;;;;;;;5077110;28;20228;-84
2022/10/21 13:32:31;;;;;;;7.25;2.67;;;;;;;;;;5078730;28;20739;-84
2022/10/21 13:35:32;;;;;;;2.60;2.40;;;;;;;;;;5077581;28;20221;-83
2022/10/21 13:38:04;;;;;;;2.25;2.05;;;;;;;;;;5078746;28;20200;-84
2022/10/21 13:40:37;;;;;;;1.85;1.75;;;;;;;;;;5080147;28;20249;-83
2022/10/21 13:43:11;;;;;;;2.28;2.17;;;;;;;;;;5081521;28;20189;-85
2022/10/21 13:45:47;;;;;;;2.67;2.50;;;;;;;;;;5080147;28;20252;-84
2022/10/21 13:48:18;;;;;;;2.65;2.47;;;;;;;;;;5081910;28;20207;-85
2022/10/21 13:50:48;;;;;;;3.20;3.00;;;;;;;;;;5079842;28;20235;-84
2022/10/21 13:53:25;;;;;;;3.80;3.50;;;;;;;;;;5079100;28;20653;-85
2022/10/21 13:55:59;;;;;;;2.97;2.70;;;;;;;;;;5080082;28;20315;-84
2022/10/21 13:58:29;;;;;;;1.80;1.70;;;;;;;;;;5079047;28;20187;-84
2022/10/21 14:01:01;;;;;;;1.90;1.80;;;;;;;;;;5076788;28;20291;-84
2022/10/21 14:03:30;;;;;;;1.98;1.30;;;;;;;;;;5076837;28;20563;-85
2022/10/21 14:05:59;;;;;;;1.05;1.05;;;;;;;;;;5076610;28;20256;-84
2022/10/21 14:08:30;;;;;;;1.60;1.50;;;;;;;;;;5089793;28;20232;-87
2022/10/21 14:11:01;;;;;;;1.00;1.00;;;;;;;;;;5094623;28;20214;-86
2022/10/21 14:13:33;;;;;;;1.08;1.08;;;;;;;;;;5095354;28;20564;-86
2022/10/21 14:16:03;;;;;;;1.23;1.20;;;;;;;;;;5094968;28;20230;-86
2022/10/21 14:18:35;;;;;;;1.48;1.40;;;;;;;;;;5094527;28;20201;-85
2022/10/21 14:21:03;;;;;;;1.60;1.50;;;;;;;;;;5094908;28;20191;-86
2022/10/21 14:23:30;;;;;;;1.50;1.40;;;;;;;;;;5094834;28;20326;-86
2022/10/21 14:26:05;;;;;;;1.40;1.30;;;;;;;;;;5094842;28;20311;-86
2022/10/21 14:28:33;;;;;;;1.38;1.30;;;;;;;;;;5094944;28;20183;-85
2022/10/21 14:31:01;;;;;;;1.20;1.20;;;;;;;;;;5079948;28;20225;-88
2022/10/21 14:33:33;;;;;;;1.10;1.10;;;;;;;;;;5074742;28;20284;-86
2022/10/21 14:36:14;;;;;;;1.20;1.20;;;;;;;;;;5074191;28;20224;-87
2022/10/21 14:38:51;;;;;;;1.00;1.00;;;;;;;;;;5074352;28;20209;-85
2022/10/21 14:41:22;;;;;;;1.30;1.20;;;;;;;;;;5074410;28;20207;-85
2022/10/21 14:43:51;;;;;;;1.67;1.58;;;;;;;;;;5074386;28;20196;-86
2022/10/21 14:46:22;;;;;;;0.98;0.98;;;;;;;;;;5074018;28;20275;-86
2022/10/21 14:48:55;;;;;;;0.90;0.90;;;;;;;;;;5073929;28;20189;-86
2022/10/21 14:51:23;;;;;;;0.90;0.90;;;;;;;;;;5074428;28;20192;-86
2022/10/21 14:53:55;;;;;;;1.50;1.40;;;;;;;;;;5074219;28;20292;-85
2022/10/21 14:56:28;;;;;;;1.25;1.25;;;;;;;;;;5073820;28;20235;-86
2022/10/21 14:58:59;;;;;;;1.20;1.20;;;;;;;;;;5073783;28;20186;-86
2022/10/21 15:01:27;;;;;;;1.20;0.95;;;;;;;;;;5074266;28;20279;-86
2022/10/21 15:04:00;;;;;;;1.13;1.10;;;;;;;;;;5074155;28;20207;-86
2022/10/21 15:06:29;;;;;;;1.13;1.13;;;;;;;;;;5085338;28;20230;-86
2022/10/21 15:09:18;;;;;;;2.25;2.15;;;;;;;;;;5081137;28;20201;-85
2022/10/21 15:11:47;;;;;;;2.05;1.95;;;;;;;;;;5073525;28;20225;-86
2022/10/21 15:14:22;;;;;;;2.28;2.08;;;;;;;;;;5073475;28;20193;-86
2022/10/21 15:16:53;;;;;;;2.33;2.22;;;;;;;;;;5073791;28;20250;-85
2022/10/21 15:19:25;;;;;;;1.75;1.65;;;;;;;;;;5073416;28;20185;-87